createdAt,value
2019-02-20T00:00:08.731Z,1.62
2019-02-20T00:02:35.217Z,1.62
2019-02-20T00:05:01.625Z,1.80
2019-02-20T00:07:28.006Z,1.52
2019-02-20T00:09:54.368Z,1.70
2019-02-20T00:12:20.782Z,1.60
2019-02-20T00:14:47.190Z,1.57
2019-02-20T00:17:13.805Z,1.87
2019-02-20T00:19:40.226Z,1.37
2019-02-20T00:22:06.521Z,1.45
2019-02-20T00:24:32.817Z,1.55
2019-02-20T00:26:59.232Z,1.90
2019-02-20T00:29:25.658Z,1.57
2019-02-20T00:31:52.101Z,1.70
2019-02-20T00:34:18.725Z,1.90
2019-02-20T00:36:47.665Z,1.60
2019-02-20T00:39:13.904Z,1.82
2019-02-20T00:41:40.421Z,1.80
2019-02-20T00:44:14.715Z,1.75
2019-02-20T00:46:42.914Z,1.80
2019-02-20T00:49:11.338Z,1.67
2019-02-20T00:51:39.786Z,1.70
2019-02-20T00:54:09.271Z,1.90
2019-02-20T00:56:35.506Z,1.60
2019-02-20T00:59:02.031Z,1.70
2019-02-20T01:01:28.573Z,2.12
2019-02-20T01:03:54.981Z,2.00
2019-02-20T01:06:21.393Z,1.80
2019-02-20T01:08:47.789Z,2.33
2019-02-20T01:11:14.223Z,2.02
2019-02-20T01:13:40.527Z,1.62
2019-02-20T01:16:07.069Z,2.05
2019-02-20T01:18:33.583Z,1.90
2019-02-20T01:21:00.093Z,2.00
2019-02-20T01:23:26.421Z,1.87
2019-02-20T01:25:52.717Z,1.77
2019-02-20T01:28:19.085Z,1.90
2019-02-20T01:30:45.345Z,2.00
2019-02-20T01:33:11.650Z,2.08
2019-02-20T01:35:38.064Z,1.57
2019-02-20T01:38:04.741Z,1.95
2019-02-20T01:40:31.284Z,1.90
2019-02-20T01:42:57.592Z,1.85
2019-02-20T01:45:24.010Z,2.08
2019-02-20T01:47:50.442Z,2.10
2019-02-20T01:50:16.836Z,1.67
2019-02-20T01:52:43.397Z,1.90
2019-02-20T01:55:09.697Z,1.98
2019-02-20T01:57:36.206Z,1.72
2019-02-20T02:00:05.149Z,1.70
2019-02-20T02:02:31.498Z,1.60
2019-02-20T02:04:57.906Z,2.02
2019-02-20T02:07:24.305Z,1.77
2019-02-20T02:09:50.608Z,1.90
2019-02-20T02:12:16.922Z,1.70
2019-02-20T02:14:43.448Z,1.60
2019-02-20T02:17:09.778Z,2.33
2019-02-20T02:19:36.188Z,1.95
2019-02-20T02:22:02.583Z,1.72
2019-02-20T02:24:28.934Z,1.98
2019-02-20T02:26:55.238Z,1.90
2019-02-20T02:29:21.668Z,1.47
2019-02-20T02:31:48.105Z,1.65
2019-02-20T02:34:14.506Z,1.70
2019-02-20T02:36:40.946Z,1.98
2019-02-20T02:39:07.342Z,1.40
2019-02-20T02:41:34.594Z,1.77
2019-02-20T02:44:00.992Z,1.60
2019-02-20T02:46:27.498Z,1.70
2019-02-20T02:48:53.797Z,1.70
2019-02-20T02:51:20.316Z,1.67
2019-02-20T02:53:49.679Z,1.80
2019-02-20T02:56:16.290Z,1.80
2019-02-20T02:58:42.709Z,1.70
2019-02-20T03:01:09.142Z,1.55
2019-02-20T03:03:35.653Z,1.90
2019-02-20T03:06:02.104Z,1.77
2019-02-20T03:08:28.410Z,1.82
2019-02-20T03:10:54.828Z,1.90
2019-02-20T03:13:21.469Z,1.90
2019-02-20T03:15:47.765Z,2.02
2019-02-20T03:18:14.194Z,1.70
2019-02-20T03:20:40.693Z,1.82
2019-02-20T03:23:06.995Z,1.70
2019-02-20T03:25:33.315Z,1.80
2019-02-20T03:27:59.738Z,1.80
2019-02-20T03:30:26.266Z,1.65
2019-02-20T03:32:52.689Z,1.90
2019-02-20T03:35:19.019Z,1.77
2019-02-20T03:37:45.441Z,1.70
2019-02-20T03:40:11.748Z,1.85
2019-02-20T03:42:38.658Z,1.57
2019-02-20T03:45:06.253Z,1.40
2019-02-20T03:47:32.559Z,1.80
2019-02-20T03:49:59.076Z,1.55
2019-02-20T03:52:25.378Z,1.72
2019-02-20T03:54:51.680Z,1.70
2019-02-20T03:57:18.212Z,1.52
2019-02-20T03:59:44.522Z,1.80
2019-02-20T04:02:11.037Z,1.37
2019-02-20T04:04:37.362Z,1.67
2019-02-20T04:07:03.872Z,1.75
2019-02-20T04:09:30.396Z,1.72
2019-02-20T04:11:57.032Z,1.52
2019-02-20T04:14:23.349Z,1.20
2019-02-20T04:16:49.668Z,1.60
2019-02-20T04:19:18.725Z,2.10
2019-02-20T04:21:45.045Z,2.12
2019-02-20T04:24:11.547Z,2.12
2019-02-20T04:26:38.737Z,2.65
2019-02-20T04:29:05.209Z,1.90
2019-02-20T04:31:31.697Z,3.25
2019-02-20T04:34:04.626Z,2.58
2019-02-20T04:36:31.107Z,1.98
2019-02-20T04:39:09.366Z,2.10
2019-02-20T04:41:35.986Z,2.17
2019-02-20T04:44:03.876Z,1.90
2019-02-20T04:46:30.302Z,1.65
2019-02-20T04:48:56.815Z,2.40
2019-02-20T04:51:23.613Z,2.27
2019-02-20T04:53:50.052Z,2.37
2019-02-20T04:56:16.949Z,2.20
2019-02-20T04:58:44.250Z,1.90
2019-02-20T05:01:11.032Z,1.85
2019-02-20T05:03:37.440Z,1.52
2019-02-20T05:06:03.882Z,2.12
2019-02-20T05:08:30.402Z,2.05
2019-02-20T05:10:56.908Z,1.50
2019-02-20T05:15:43.274Z,1.90
2019-02-20T05:18:09.709Z,1.40
2019-02-20T05:20:36.022Z,1.65
2019-02-20T05:23:02.426Z,2.05
2019-02-20T05:25:28.956Z,1.40
2019-02-20T05:27:55.460Z,1.40
2019-02-20T05:30:21.888Z,1.57
2019-02-20T05:32:49.542Z,2.30
2019-02-20T05:35:16.106Z,1.90
2019-02-20T05:37:42.549Z,1.57
2019-02-20T05:40:09.561Z,1.25
2019-02-20T05:42:36.006Z,1.80
2019-02-20T05:45:03.723Z,1.72
2019-02-20T05:47:30.145Z,1.32
2019-02-20T05:49:56.763Z,1.42
2019-02-20T05:52:23.169Z,1.35
2019-02-20T05:54:50.007Z,1.20
2019-02-20T05:57:16.423Z,2.00
2019-02-20T05:59:42.710Z,1.45
2019-02-20T06:02:09.148Z,1.30
2019-02-20T06:04:35.545Z,1.40
2019-02-20T06:07:01.969Z,1.22
2019-02-20T06:09:28.468Z,1.20
2019-02-20T06:11:55.537Z,1.32
2019-02-20T06:14:21.981Z,1.40
2019-02-20T06:16:48.387Z,1.60
2019-02-20T06:19:14.907Z,1.35
2019-02-20T06:21:41.673Z,0.95
2019-02-20T06:24:08.082Z,1.20
2019-02-20T06:26:34.402Z,1.10
2019-02-20T06:29:00.784Z,1.40
2019-02-20T06:31:27.515Z,1.22
2019-02-20T06:33:53.874Z,1.20
2019-02-20T06:36:20.177Z,1.40
2019-02-20T06:38:46.588Z,1.22
2019-02-20T06:41:13.006Z,1.42
2019-02-20T06:43:39.319Z,1.00
2019-02-20T06:46:06.316Z,1.20
2019-02-20T06:48:33.177Z,1.10
2019-02-20T06:50:59.490Z,1.05
2019-02-20T06:53:25.968Z,1.00
2019-02-20T06:55:52.318Z,1.40
2019-02-20T06:58:18.864Z,1.30
2019-02-20T07:00:45.202Z,1.52
2019-02-20T07:03:11.738Z,1.30
2019-02-20T07:05:39.549Z,1.20
2019-02-20T07:08:31.437Z,1.40
2019-02-20T07:11:04.681Z,1.02
2019-02-20T07:13:57.807Z,1.07
2019-02-20T07:16:37.127Z,1.10
2019-02-20T07:19:07.290Z,1.07
2019-02-20T07:21:55.477Z,1.30
2019-02-20T07:24:25.611Z,1.07
2019-02-20T07:26:59.070Z,0.93
2019-02-20T07:29:35.222Z,1.22
2019-02-20T07:32:01.739Z,1.25
2019-02-20T07:34:28.048Z,1.15
2019-02-20T07:36:54.361Z,1.12
2019-02-20T07:39:21.951Z,0.90
2019-02-20T07:41:48.273Z,1.27
2019-02-20T07:44:14.675Z,0.80
2019-02-20T07:46:41.213Z,1.00
2019-02-20T07:49:08.075Z,1.00
2019-02-20T07:51:34.463Z,1.05
2019-02-20T07:54:00.758Z,1.02
2019-02-20T07:56:27.069Z,0.80
2019-02-20T07:58:53.613Z,0.78
2019-02-20T08:01:19.939Z,1.07
2019-02-20T08:03:46.332Z,0.80
2019-02-20T08:06:12.732Z,1.10
2019-02-20T08:08:39.044Z,0.88
2019-02-20T08:11:05.676Z,0.98
2019-02-20T08:13:39.062Z,1.10
2019-02-20T08:16:00.313Z,0.60
2019-02-20T08:18:26.847Z,1.22
2019-02-20T08:20:53.229Z,0.90
2019-02-20T08:23:19.558Z,1.25
2019-02-20T08:25:45.863Z,1.35
2019-02-20T08:28:12.380Z,0.93
2019-02-20T08:30:38.899Z,0.88
2019-02-20T08:33:05.194Z,0.93
2019-02-20T08:35:31.930Z,0.90
2019-02-20T08:37:58.374Z,0.80
2019-02-20T08:40:24.676Z,1.17
2019-02-20T08:42:51.202Z,0.90
2019-02-20T08:45:17.839Z,0.80
2019-02-20T08:47:44.736Z,1.05
2019-02-20T08:50:12.538Z,1.02
2019-02-20T08:52:38.837Z,0.90
2019-02-20T08:55:08.057Z,0.80
2019-02-20T08:57:34.449Z,0.80
2019-02-20T09:00:00.877Z,0.90
2019-02-20T09:02:27.277Z,0.90
2019-02-20T09:04:54.839Z,0.82
2019-02-20T09:07:21.468Z,0.90
2019-02-20T09:09:47.762Z,1.00
2019-02-20T09:12:14.302Z,1.02
2019-02-20T09:14:41.121Z,0.93
2019-02-20T09:17:08.632Z,1.45
2019-02-20T09:19:35.104Z,1.70
2019-02-20T09:22:01.474Z,1.50
2019-02-20T09:24:28.492Z,1.02
2019-02-20T09:26:54.784Z,1.27
2019-02-20T09:29:21.199Z,1.10
2019-02-20T09:31:47.840Z,1.20
2019-02-20T09:34:14.534Z,1.20
2019-02-20T09:36:41.168Z,1.07
2019-02-20T09:39:30.517Z,1.20
2019-02-20T09:41:57.369Z,1.10
2019-02-20T09:44:23.919Z,1.00
2019-02-20T09:46:50.334Z,1.00
2019-02-20T09:49:16.966Z,1.25
2019-02-20T09:51:43.379Z,0.80
2019-02-20T09:54:09.694Z,1.17
2019-02-20T09:56:36.343Z,1.05
2019-02-20T09:59:02.744Z,0.95
2019-02-20T10:01:29.293Z,0.85
2019-02-20T10:03:55.593Z,1.00
2019-02-20T10:06:21.926Z,0.90
2019-02-20T10:08:48.337Z,0.80
2019-02-20T10:11:15.070Z,0.80
2019-02-20T10:13:41.770Z,0.78
2019-02-20T10:16:08.223Z,0.88
2019-02-20T10:18:34.694Z,0.60
2019-02-20T10:21:01.249Z,0.95
2019-02-20T10:23:28.100Z,0.70
2019-02-20T10:26:00.862Z,0.90
2019-02-20T10:28:22.709Z,0.90
2019-02-20T10:30:49.252Z,0.85
2019-02-20T10:33:18.471Z,0.70
2019-02-20T10:35:45.181Z,0.85
2019-02-20T10:38:14.739Z,0.70
2019-02-20T10:40:41.265Z,0.80
2019-02-20T10:43:08.303Z,0.85
2019-02-20T10:45:34.737Z,0.88
2019-02-20T10:48:01.173Z,0.72
2019-02-20T10:50:27.562Z,0.90
2019-02-20T10:52:53.994Z,0.70
2019-02-20T10:55:20.910Z,0.80
2019-02-20T10:57:47.429Z,0.82
2019-02-20T11:00:25.609Z,1.10
2019-02-20T11:02:53.721Z,1.00
2019-02-20T11:05:21.138Z,0.88
2019-02-20T11:07:47.672Z,1.15
2019-02-20T11:10:14.192Z,0.98
2019-02-20T11:12:40.593Z,1.40
2019-02-20T11:15:07.181Z,1.22
2019-02-20T11:17:34.033Z,1.10
2019-02-20T11:20:00.453Z,1.47
2019-02-20T11:22:27.002Z,1.22
2019-02-20T11:24:53.885Z,1.35
2019-02-20T11:27:20.531Z,1.42
2019-02-20T11:29:47.058Z,1.40
2019-02-20T11:32:13.486Z,1.32
2019-02-20T11:34:39.809Z,1.42
2019-02-20T11:37:06.221Z,1.30
2019-02-20T11:39:37.639Z,1.35
2019-02-20T11:42:01.079Z,2.20
2019-02-20T11:44:27.483Z,2.62
2019-02-20T11:46:54.714Z,2.72
2019-02-20T11:49:21.556Z,2.50
2019-02-20T11:51:48.230Z,2.50
2019-02-20T11:54:15.328Z,2.15
2019-02-20T11:56:41.905Z,2.10
2019-02-20T11:59:08.337Z,1.87
2019-02-20T12:01:35.239Z,1.85
2019-02-20T12:04:01.705Z,1.80
2019-02-20T12:06:28.112Z,1.55
2019-02-20T12:08:55.625Z,1.92
2019-02-20T12:11:22.554Z,2.22
2019-02-20T12:13:53.788Z,1.70
2019-02-20T12:16:20.706Z,1.60
2019-02-20T12:18:47.045Z,1.10
2019-02-20T12:21:13.537Z,1.20
2019-02-20T12:23:40.341Z,1.40
2019-02-20T12:26:06.862Z,1.85
2019-02-20T12:28:33.418Z,1.02
2019-02-20T12:30:59.930Z,1.02
2019-02-20T12:33:26.218Z,1.00
2019-02-20T12:35:52.642Z,1.67
2019-02-20T12:38:18.947Z,1.10
2019-02-20T12:40:46.372Z,1.00
2019-02-20T12:43:12.768Z,0.90
2019-02-20T12:45:39.178Z,1.12
2019-02-20T12:48:05.710Z,1.20
2019-02-20T12:50:35.089Z,0.98
2019-02-20T12:53:01.533Z,0.90
2019-02-20T12:55:28.041Z,0.82
2019-02-20T12:57:54.649Z,0.62
2019-02-20T13:00:22.389Z,1.00
2019-02-20T13:02:48.699Z,0.85
2019-02-20T13:05:15.402Z,0.82
2019-02-20T13:07:42.017Z,0.90
2019-02-20T13:10:08.879Z,1.00
2019-02-20T13:12:35.309Z,0.60
2019-02-20T13:15:01.840Z,0.90
2019-02-20T13:17:29.629Z,0.90
2019-02-20T13:19:56.836Z,0.53
2019-02-20T13:22:23.439Z,0.60
2019-02-20T13:24:50.705Z,0.70
2019-02-20T13:27:22.846Z,0.57
2019-02-20T13:29:45.259Z,0.60
2019-02-20T13:32:11.702Z,0.60
2019-02-20T13:34:38.105Z,0.70
2019-02-20T13:37:04.669Z,0.70
2019-02-20T13:39:30.947Z,0.50
2019-02-20T13:41:57.381Z,0.80
2019-02-20T13:44:23.857Z,0.65
2019-02-20T13:46:50.805Z,5.72
2019-02-20T13:49:18.047Z,5.47
2019-02-20T13:51:44.580Z,3.70
2019-02-20T13:54:11.112Z,2.98
2019-02-20T13:56:37.499Z,3.20
2019-02-20T13:59:04.143Z,2.85
2019-02-20T14:01:30.667Z,3.10
2019-02-20T14:03:57.175Z,2.95
2019-02-20T14:06:23.613Z,2.27
2019-02-20T14:08:50.218Z,2.35
2019-02-20T14:11:16.629Z,1.82
2019-02-20T14:13:43.046Z,2.00
2019-02-20T14:16:09.587Z,1.80
2019-02-20T14:18:36.129Z,1.80
2019-02-20T14:21:02.689Z,1.60
2019-02-20T14:23:29.775Z,1.30
2019-02-20T14:25:56.401Z,1.70
2019-02-20T14:28:22.994Z,1.67
2019-02-20T14:30:49.495Z,1.60
2019-02-20T14:33:16.071Z,1.40
2019-02-20T14:35:42.689Z,1.10
2019-02-20T14:38:09.301Z,1.02
2019-02-20T14:40:35.942Z,1.20
2019-02-20T14:43:02.345Z,1.15
2019-02-20T14:45:28.642Z,1.17
2019-02-20T14:47:54.956Z,1.10
2019-02-20T14:50:21.247Z,1.32
2019-02-20T14:52:47.585Z,1.10
2019-02-20T14:55:13.992Z,1.17
2019-02-20T14:57:40.420Z,1.00
2019-02-20T15:00:10.841Z,0.98
2019-02-20T15:02:37.243Z,0.93
2019-02-20T15:05:05.315Z,1.30
2019-02-20T15:07:33.820Z,1.05
2019-02-20T15:10:00.300Z,0.70
2019-02-20T15:12:26.629Z,0.88
2019-02-20T15:14:53.045Z,0.90
2019-02-20T15:17:19.473Z,1.20
2019-02-20T15:19:46.082Z,1.00
2019-02-20T15:22:12.720Z,0.95
2019-02-20T15:24:39.044Z,0.80
2019-02-20T15:27:06.314Z,0.90
2019-02-20T15:29:33.031Z,0.82
2019-02-20T15:31:59.323Z,0.70
2019-02-20T15:34:25.953Z,0.80
2019-02-20T15:36:52.273Z,0.80
2019-02-20T15:39:18.673Z,0.80
2019-02-20T15:41:45.213Z,1.00
2019-02-20T15:44:11.608Z,0.80
2019-02-20T15:46:38.012Z,0.82
2019-02-20T15:49:04.943Z,0.80
2019-02-20T15:51:31.828Z,0.70
2019-02-20T15:53:58.153Z,0.70
2019-02-20T15:56:24.569Z,0.80
2019-02-20T15:58:51.083Z,0.90
2019-02-20T16:01:17.502Z,0.80
2019-02-20T16:03:44.152Z,0.88
2019-02-20T16:06:10.879Z,0.70
2019-02-20T16:08:38.172Z,0.85
2019-02-20T16:11:04.596Z,0.42
2019-02-20T16:13:30.970Z,0.75
2019-02-20T16:15:57.276Z,0.75
2019-02-20T16:18:23.708Z,0.75
2019-02-20T16:20:50.037Z,0.90
2019-02-20T16:23:16.547Z,0.95
2019-02-20T16:25:44.711Z,1.00
2019-02-20T16:28:11.086Z,0.72
2019-02-20T16:30:37.814Z,0.80
2019-02-20T16:33:04.241Z,0.90
2019-02-20T16:35:30.629Z,0.80
2019-02-20T16:37:57.056Z,0.60
2019-02-20T16:40:23.458Z,0.80
2019-02-20T16:42:57.385Z,0.60
2019-02-20T16:45:24.209Z,0.95
2019-02-20T16:47:51.001Z,0.70
2019-02-20T16:50:17.355Z,0.70
2019-02-20T16:52:43.665Z,0.78
2019-02-20T16:55:10.297Z,0.72
2019-02-20T16:57:36.824Z,0.65
2019-02-20T17:00:06.089Z,0.42
2019-02-20T17:02:32.375Z,0.80
2019-02-20T17:04:59.289Z,0.70
2019-02-20T17:07:27.514Z,0.60
2019-02-20T17:09:54.013Z,0.80
2019-02-20T17:12:20.798Z,0.60
2019-02-20T17:14:47.234Z,0.90
2019-02-20T17:17:13.763Z,0.57
2019-02-20T17:19:40.289Z,0.80
2019-02-20T17:22:06.811Z,0.60
2019-02-20T17:24:33.470Z,0.75
2019-02-20T17:27:00.889Z,0.80
2019-02-20T17:29:27.623Z,0.80
2019-02-20T17:31:54.451Z,0.90
2019-02-20T17:34:20.971Z,0.90
2019-02-20T17:36:49.294Z,0.80
2019-02-20T17:39:16.018Z,0.78
2019-02-20T17:41:42.434Z,0.80
2019-02-20T17:44:09.066Z,0.70
2019-02-20T17:46:35.881Z,1.07
2019-02-20T17:49:02.694Z,0.62
2019-02-20T17:51:29.327Z,0.85
2019-02-20T17:53:56.147Z,0.80
2019-02-20T17:56:22.684Z,0.75
2019-02-20T17:58:49.184Z,0.80
2019-02-20T18:01:16.394Z,0.60
2019-02-20T18:03:43.137Z,0.90
2019-02-20T18:06:09.757Z,0.70
2019-02-20T18:08:36.398Z,0.60
2019-02-20T18:11:03.075Z,0.70
2019-02-20T18:13:29.743Z,0.70
2019-02-20T18:15:56.266Z,0.88
2019-02-20T18:18:22.953Z,0.90
2019-02-20T18:20:49.372Z,1.00
2019-02-20T18:23:15.869Z,0.80
2019-02-20T18:25:42.290Z,0.80
2019-02-20T18:28:08.707Z,0.88
2019-02-20T18:30:35.219Z,1.00
2019-02-20T18:33:01.864Z,0.80
2019-02-20T18:35:28.162Z,0.60
2019-02-20T18:37:54.678Z,0.72
2019-02-20T18:40:21.181Z,0.90
2019-02-20T18:42:47.723Z,0.70
2019-02-20T18:45:14.430Z,0.80
2019-02-20T18:47:42.343Z,0.90
2019-02-20T18:50:13.134Z,0.90
2019-02-20T18:52:39.442Z,1.15
2019-02-20T18:55:16.190Z,1.02
2019-02-20T18:57:42.547Z,0.93
2019-02-20T19:00:13.463Z,0.78
2019-02-20T19:02:40.311Z,1.00
2019-02-20T19:05:08.111Z,0.60
2019-02-20T19:07:34.865Z,1.00
2019-02-20T19:10:02.018Z,0.93
2019-02-20T19:12:35.562Z,0.80
2019-02-20T19:15:22.414Z,0.60
2019-02-20T19:18:11.190Z,0.80
2019-02-20T19:20:41.591Z,0.93
2019-02-20T19:23:28.559Z,0.88
2019-02-20T19:26:13.765Z,0.80
2019-02-20T19:28:44.526Z,1.10
2019-02-20T19:31:34.826Z,1.00
2019-02-20T19:34:20.146Z,0.80
2019-02-20T19:37:06.892Z,0.80
2019-02-20T19:39:49.169Z,0.90
2019-02-20T19:42:22.123Z,1.15
2019-02-20T19:45:19.353Z,0.90
2019-02-20T19:48:06.534Z,0.90
2019-02-20T19:50:48.894Z,0.90
2019-02-20T19:53:21.974Z,0.80
2019-02-20T19:56:09.051Z,1.10
2019-02-20T19:59:03.449Z,0.98
2019-02-20T20:01:51.760Z,0.90
2019-02-20T20:04:21.885Z,1.12
2019-02-20T20:07:21.337Z,0.90
2019-02-20T20:10:08.065Z,1.02
2019-02-20T20:13:05.938Z,0.78
2019-02-20T20:15:42.293Z,0.98
2019-02-20T20:18:31.862Z,1.02
2019-02-20T20:21:10.938Z,1.00
2019-02-20T20:23:50.129Z,0.95
2019-02-20T20:26:36.982Z,1.15
2019-02-20T20:29:39.154Z,1.07
2019-02-20T20:32:18.704Z,0.98
2019-02-20T20:35:05.614Z,0.95
2019-02-20T20:37:35.811Z,1.00
2019-02-20T20:40:12.046Z,1.20
2019-02-20T20:42:42.333Z,0.80
2019-02-20T20:45:32.068Z,1.35
2019-02-20T20:48:35.189Z,1.20
2019-02-20T20:51:11.244Z,1.75
2019-02-20T20:53:56.667Z,1.30
2019-02-20T20:56:32.427Z,1.12
2019-02-20T20:59:17.708Z,1.40
2019-02-20T21:01:55.255Z,1.12
2019-02-20T21:04:31.705Z,1.50
2019-02-20T21:07:16.849Z,1.20
2019-02-20T21:09:56.098Z,1.25
2019-02-20T21:12:58.369Z,1.40
2019-02-20T21:15:34.157Z,1.12
2019-02-20T21:18:13.103Z,1.25
2019-02-20T21:20:52.435Z,1.27
2019-02-20T21:23:45.697Z,1.62
2019-02-20T21:26:33.951Z,1.42
2019-02-20T21:29:10.227Z,1.52
2019-02-20T21:32:01.840Z,1.37
2019-02-20T21:34:51.670Z,1.50
2019-02-20T21:37:38.344Z,1.25
2019-02-20T21:40:11.213Z,1.50
2019-02-20T21:42:50.525Z,1.70
2019-02-20T21:45:23.426Z,1.70
2019-02-20T21:48:13.471Z,1.67
2019-02-20T21:50:43.593Z,1.47
2019-02-20T21:53:25.157Z,1.47
2019-02-20T21:55:55.350Z,1.30
2019-02-20T21:58:33.196Z,1.35
2019-02-20T22:01:15.900Z,1.52
2019-02-20T22:03:55.206Z,1.72
2019-02-20T22:06:37.582Z,1.50
2019-02-20T22:09:10.448Z,1.60
2019-02-20T22:11:58.949Z,1.30
2019-02-20T22:14:34.811Z,1.37
2019-02-20T22:17:13.909Z,1.50
2019-02-20T22:20:03.549Z,1.30
2019-02-20T22:22:33.705Z,1.80
2019-02-20T22:25:23.513Z,1.50
2019-02-20T22:27:59.585Z,1.40
2019-02-20T22:31:03.143Z,1.50
2019-02-20T22:33:33.368Z,1.40
2019-02-20T22:36:21.444Z,1.10
2019-02-20T22:38:51.599Z,1.52
2019-02-20T22:41:51.589Z,1.70
2019-02-20T22:44:44.502Z,1.27
2019-02-20T22:47:17.895Z,1.57
2019-02-20T22:49:50.824Z,1.60
2019-02-20T22:52:23.930Z,1.42
2019-02-20T22:55:00.100Z,1.40
2019-02-20T22:57:39.276Z,1.20
2019-02-20T23:00:51.375Z,1.30
2019-02-20T23:03:39.145Z,1.55
2019-02-20T23:06:24.442Z,1.80
2019-02-20T23:08:57.671Z,1.85
2019-02-20T23:11:47.793Z,1.40
2019-02-20T23:14:42.496Z,1.45
2019-02-20T23:17:08.824Z,1.60
2019-02-20T23:19:35.171Z,2.12
2019-02-20T23:22:01.473Z,1.20
2019-02-20T23:24:27.910Z,1.70
2019-02-20T23:26:54.434Z,1.32
2019-02-20T23:29:20.712Z,1.42
2019-02-20T23:31:47.287Z,1.20
2019-02-20T23:34:13.537Z,1.42
2019-02-20T23:36:40.171Z,1.30
2019-02-20T23:39:06.468Z,1.77
2019-02-20T23:41:32.894Z,1.67
2019-02-20T23:43:59.395Z,1.30
2019-02-20T23:46:25.694Z,1.62
2019-02-20T23:48:52.128Z,1.60
2019-02-20T23:51:18.972Z,1.30
2019-02-20T23:53:45.257Z,1.62
2019-02-20T23:56:11.657Z,1.72
2019-02-20T23:58:38.233Z,1.72
